Time;durP1;ratioP1;P1;durP2;ratioP2;P2;SDS_P1;SDS_P2;PMS_P1;PMS_P2;Temp;Humidity;BMP_temperature;BMP_pressure;BME280_temperature;BME280_humidity;BME280_pressure;Samples;Min_cycle;Max_cycle;Signal;HPM_P1;HPM_P2
2023/05/04 00:02:03;;;;;;;1.35;0.38;;;;;;;14.51;70.76;100790.41;5038920;28;20481;-50
2023/05/04 00:04:30;;;;;;;0.80;0.40;;;;;;;14.63;70.58;100786.91;5053977;28;20124;-50
2023/05/04 00:06:56;;;;;;;3.95;0.75;;;;;;;14.58;68.92;100784.06;5053600;28;20384;-47
2023/05/04 00:09:22;;;;;;;2.38;0.38;;;;;;;14.61;68.41;100775.53;5033482;28;20021;-46
2023/05/04 00:11:48;;;;;;;2.17;0.30;;;;;;;14.71;68.07;100783.84;5033845;28;20025;-50
2023/05/04 00:14:15;;;;;;;2.30;0.30;;;;;;;14.81;69.60;100783.25;5033775;28;20049;-50
2023/05/04 00:16:42;;;;;;;1.75;0.43;;;;;;;14.92;67.61;100777.84;5033826;28;20063;-50
2023/05/04 00:19:09;;;;;;;0.40;0.30;;;;;;;15.10;66.57;100778.75;5033273;28;20105;-50
2023/05/04 00:21:35;;;;;;;1.45;0.30;;;;;;;15.08;66.34;100778.19;5033229;28;20087;-48
2023/05/04 00:24:01;;;;;;;2.20;0.22;;;;;;;14.87;66.40;100787.69;5033522;28;20056;-48
2023/05/04 00:26:28;;;;;;;0.45;0.30;;;;;;;14.82;65.17;100768.72;5033076;28;20442;-51
2023/05/04 00:28:54;;;;;;;2.05;0.25;;;;;;;14.78;64.64;100774.59;5033110;28;20029;-51
2023/05/04 00:31:20;;;;;;;0.82;0.30;;;;;;;14.77;64.10;100770.28;5029318;28;20395;-49
2023/05/04 00:33:46;;;;;;;1.25;0.30;;;;;;;14.89;64.46;100766.75;5032347;28;20127;-51
2023/05/04 00:36:13;;;;;;;2.97;0.50;;;;;;;14.86;64.72;100767.19;5011831;28;20112;-49
2023/05/04 00:38:52;;;;;;;0.95;0.30;;;;;;;14.98;65.67;100770.69;5029158;28;20112;-45
2023/05/04 00:41:19;;;;;;;1.15;0.57;;;;;;;14.99;64.36;100781.25;5036933;28;20059;-46
2023/05/04 00:43:47;;;;;;;0.60;0.40;;;;;;;15.04;65.50;100767.88;5032153;28;20444;-43
2023/05/04 00:46:14;;;;;;;0.60;0.60;;;;;;;15.12;66.09;100766.69;5032901;28;20163;-44
2023/05/04 00:48:41;;;;;;;1.17;0.50;;;;;;;15.34;66.04;100772.28;5022518;28;20060;-46
2023/05/04 00:51:10;;;;;;;1.58;0.50;;;;;;;15.51;66.94;100764.25;5015926;28;20398;-50
2023/05/04 00:53:38;;;;;;;0.70;0.60;;;;;;;15.60;68.22;100760.09;5037762;28;20119;-51
2023/05/04 00:56:06;;;;;;;5.75;1.02;;;;;;;15.56;68.93;100765.16;5033298;28;20022;-49
2023/05/04 00:58:33;;;;;;;2.35;1.02;;;;;;;15.67;68.68;100760.81;5031829;28;20078;-51
2023/05/04 01:01:01;;;;;;;1.35;0.75;;;;;;;15.49;69.96;100759.09;5031453;28;20032;-47
2023/05/04 01:03:28;;;;;;;3.10;0.80;;;;;;;15.62;69.52;100755.28;5032518;28;20034;-52
2023/05/04 01:06:28;;;;;;;2.85;0.88;;;;;;;15.73;69.22;100761.72;5032945;28;20021;-51
2023/05/04 01:09:43;;;;;;;2.83;0.88;;;;;;;15.75;68.02;100760.41;5032254;28;20397;-51
2023/05/04 01:12:55;;;;;;;1.48;0.60;;;;;;;15.71;67.71;100763.81;5034537;28;20037;-51
2023/05/04 01:15:22;;;;;;;2.05;0.90;;;;;;;15.77;66.82;100761.00;5010521;28;20034;-51
2023/05/04 01:17:49;;;;;;;1.08;0.50;;;;;;;15.66;67.59;100763.75;5010492;28;20030;-51
2023/05/04 01:20:15;;;;;;;1.35;0.60;;;;;;;15.73;66.78;100767.13;5025185;28;20045;-51
2023/05/04 01:22:41;;;;;;;2.15;0.55;;;;;;;15.71;67.71;100771.91;5032488;28;20029;-50
2023/05/04 01:25:10;;;;;;;2.00;0.82;;;;;;;15.54;67.87;100764.56;5032306;28;20391;-50
2023/05/04 01:28:07;;;;;;;0.55;0.52;;;;;;;15.73;68.21;100769.81;5029503;28;20524;-48
2023/05/04 01:30:44;;;;;;;1.67;0.50;;;;;;;15.72;66.93;100778.97;5031285;28;20044;-47
2023/05/04 01:33:11;;;;;;;1.65;0.70;;;;;;;15.57;66.89;100776.78;5031628;28;20041;-44
2023/05/04 01:35:38;;;;;;;1.98;0.90;;;;;;;15.53;67.42;100776.41;5031930;28;20040;-49
2023/05/04 01:38:04;;;;;;;1.13;0.40;;;;;;;15.59;66.95;100778.16;5031787;28;20065;-46
2023/05/04 01:40:31;;;;;;;2.25;0.60;;;;;;;15.61;66.97;100772.53;5031708;28;20068;-56
2023/05/04 01:42:57;;;;;;;1.63;0.50;;;;;;;15.62;66.99;100770.66;5031742;28;20354;-48
2023/05/04 01:45:23;;;;;;;3.40;0.63;;;;;;;15.46;67.00;100764.13;5028246;28;20017;-47
2023/05/04 01:47:50;;;;;;;1.25;0.50;;;;;;;15.57;67.65;100774.88;5031608;28;20512;-46
2023/05/04 01:50:16;;;;;;;0.50;0.40;;;;;;;15.73;66.94;100773.31;5031246;28;20029;-48
2023/05/04 01:52:42;;;;;;;2.13;0.60;;;;;;;15.65;67.58;100772.88;5031523;28;20025;-47
2023/05/04 01:55:09;;;;;;;2.40;0.70;;;;;;;15.79;66.18;100769.66;5034200;28;20021;-47
2023/05/04 01:57:35;;;;;;;1.48;0.57;;;;;;;15.69;65.78;100774.06;5031871;28;20109;-50
2023/05/04 02:00:02;;;;;;;0.63;0.50;;;;;;;15.79;64.83;100783.16;5031318;28;20029;-47
2023/05/04 02:02:28;;;;;;;0.95;0.47;;;;;;;15.66;65.83;100788.84;5031722;28;20051;-45
2023/05/04 02:04:55;;;;;;;0.80;0.50;;;;;;;15.60;65.83;100789.75;5023996;28;20026;-52
2023/05/04 02:07:21;;;;;;;1.55;0.50;;;;;;;15.49;66.63;100798.72;5013717;28;20624;-50
2023/05/04 02:09:47;;;;;;;2.35;0.70;;;;;;;15.47;65.70;100792.75;5027134;28;20045;-53
2023/05/04 02:12:13;;;;;;;2.17;0.50;;;;;;;15.40;66.94;100794.78;5049303;28;20036;-44
2023/05/04 02:14:39;;;;;;;1.00;0.60;;;;;;;15.44;68.25;100795.94;5038512;28;20115;-45
2023/05/04 02:17:07;;;;;;;2.63;0.50;;;;;;;15.30;67.94;100796.19;5031746;28;20038;-43
2023/05/04 02:19:33;;;;;;;1.10;0.60;;;;;;;14.66;68.42;100805.31;5041549;28;20025;-47
2023/05/04 02:21:59;;;;;;;1.85;0.50;;;;;;;14.82;68.52;100807.25;5051421;28;20039;-47
2023/05/04 02:24:26;;;;;;;1.85;0.52;;;;;;;14.56;69.97;100805.88;5026298;28;20030;-50
2023/05/04 02:26:52;;;;;;;0.77;0.40;;;;;;;14.29;70.52;100813.53;5031554;28;20068;-46
2023/05/04 02:29:18;;;;;;;1.38;0.65;;;;;;;14.30;70.24;100812.47;5038558;28;20052;-50
2023/05/04 02:31:45;;;;;;;1.42;0.50;;;;;;;14.29;70.22;100818.09;5051324;28;20040;-51
2023/05/04 02:34:11;;;;;;;0.75;0.40;;;;;;;14.26;70.15;100814.78;5043541;28;20068;-51
2023/05/04 02:36:37;;;;;;;1.10;0.50;;;;;;;14.20;70.41;100826.47;5047466;28;20029;-44
2023/05/04 02:39:03;;;;;;;1.35;0.40;;;;;;;14.17;70.70;100828.84;5045772;28;20202;-52
2023/05/04 02:41:30;;;;;;;1.95;0.70;;;;;;;14.27;71.14;100831.78;5004824;28;20033;-53
2023/05/04 02:43:56;;;;;;;0.93;0.60;;;;;;;14.28;71.28;100833.44;5031285;28;20744;-52
2023/05/04 02:46:24;;;;;;;1.00;0.43;;;;;;;14.23;72.92;100826.03;5031468;28;20035;-52
2023/05/04 02:48:50;;;;;;;4.95;0.90;;;;;;;14.27;72.79;100832.59;5030906;28;20026;-51
2023/05/04 02:51:18;;;;;;;1.00;0.50;;;;;;;14.23;73.54;100830.59;5031499;28;20032;-51
2023/05/04 02:53:44;;;;;;;0.82;0.57;;;;;;;14.23;73.30;100835.97;5031491;28;20025;-51
2023/05/04 02:56:10;;;;;;;1.58;0.55;;;;;;;14.15;73.26;100841.69;5031654;28;20103;-52
2023/05/04 02:58:37;;;;;;;2.38;0.63;;;;;;;14.22;73.85;100835.16;5028029;28;20095;-51
2023/05/04 03:01:03;;;;;;;0.70;0.40;;;;;;;14.29;72.93;100835.06;5030972;28;20120;-51
2023/05/04 03:03:29;;;;;;;1.98;0.60;;;;;;;14.22;72.38;100835.16;5025343;28;20504;-51
2023/05/04 03:05:55;;;;;;;1.92;0.60;;;;;;;14.13;71.74;100835.72;5036802;28;20029;-52
2023/05/04 03:08:21;;;;;;;2.58;0.60;;;;;;;14.12;72.06;100834.09;5054637;28;20017;-52
2023/05/04 03:10:48;;;;;;;1.60;0.70;;;;;;;14.10;73.28;100841.53;5040200;28;20057;-52
2023/05/04 03:13:15;;;;;;;2.17;1.00;;;;;;;14.19;73.05;100843.69;5034845;28;20496;-52
2023/05/04 03:15:41;;;;;;;3.17;2.40;;;;;;;14.07;74.06;100842.84;5022841;28;20026;-53
2023/05/04 03:18:08;;;;;;;1.88;1.23;;;;;;;14.19;72.89;100841.00;5014823;28;20484;-51
2023/05/04 03:20:34;;;;;;;1.58;1.15;;;;;;;14.08;73.55;100839.09;5030096;28;20477;-51
2023/05/04 03:23:00;;;;;;;2.53;1.10;;;;;;;14.04;74.04;100848.66;5045381;28;20021;-51
2023/05/04 03:25:26;;;;;;;1.23;0.98;;;;;;;13.96;74.84;100841.75;5054775;28;20491;-52
2023/05/04 03:27:53;;;;;;;2.35;0.90;;;;;;;14.12;74.67;100852.91;5037529;28;20029;-50
2023/05/04 03:30:19;;;;;;;3.75;0.82;;;;;;;13.96;74.99;100847.13;5035035;28;20032;-52
2023/05/04 03:32:46;;;;;;;2.50;0.90;;;;;;;14.03;74.73;100849.72;5034192;28;20544;-52
2023/05/04 03:35:13;;;;;;;1.73;0.55;;;;;;;13.91;75.87;100856.94;5034415;28;20465;-49
2023/05/04 03:37:39;;;;;;;1.60;0.90;;;;;;;14.02;74.92;100855.34;5034646;28;20389;-50
2023/05/04 03:40:06;;;;;;;1.10;0.77;;;;;;;13.89;75.10;100845.59;5051997;28;20025;-51
2023/05/04 03:42:32;;;;;;;0.93;0.70;;;;;;;13.81;75.72;100852.09;5054269;28;20029;-52
2023/05/04 03:44:58;;;;;;;2.63;0.90;;;;;;;13.87;75.17;100844.97;5054158;28;20455;-51
2023/05/04 03:47:25;;;;;;;1.85;0.68;;;;;;;13.73;75.14;100847.03;5054176;28;20483;-52
2023/05/04 03:49:51;;;;;;;1.40;0.77;;;;;;;13.81;74.66;100854.78;5053904;28;20029;-52
2023/05/04 03:52:17;;;;;;;1.75;0.75;;;;;;;13.70;75.68;100856.34;5053980;28;20099;-51
2023/05/04 03:54:44;;;;;;;2.45;0.85;;;;;;;13.65;76.16;100860.78;5054057;28;20067;-53
2023/05/04 03:57:10;;;;;;;2.00;0.60;;;;;;;13.59;76.89;100857.13;5053895;28;20416;-52
2023/05/04 03:59:36;;;;;;;3.30;0.88;;;;;;;13.82;76.42;100861.78;5053613;28;20107;-50
2023/05/04 04:02:02;;;;;;;1.52;1.00;;;;;;;13.78;76.57;100863.31;5053972;28;20478;-51
2023/05/04 04:04:29;;;;;;;2.97;1.00;;;;;;;13.29;78.08;100869.69;5053765;28;20033;-52
2023/05/04 04:06:55;;;;;;;1.33;0.73;;;;;;;13.26;76.91;100876.31;5053613;28;20416;-51
2023/05/04 04:09:21;;;;;;;3.13;1.10;;;;;;;13.07;79.46;100870.06;5053555;28;20025;-51
2023/05/04 04:11:48;;;;;;;3.45;1.20;;;;;;;13.15;78.75;100871.63;5053717;28;20021;-52
2023/05/04 04:14:14;;;;;;;2.78;1.35;;;;;;;13.04;78.77;100881.25;5053727;28;20032;-50
2023/05/04 04:16:40;;;;;;;3.13;1.60;;;;;;;13.02;79.18;100879.84;5035527;28;20025;-52
2023/05/04 04:19:07;;;;;;;1.98;1.05;;;;;;;12.99;79.97;100882.94;5032633;28;20032;-50
2023/05/04 04:21:33;;;;;;;2.22;1.27;;;;;;;13.12;80.34;100883.66;5033158;28;20036;-52
2023/05/04 04:23:59;;;;;;;1.33;0.95;;;;;;;13.20;78.79;100882.53;5033465;28;20052;-50
2023/05/04 04:26:25;;;;;;;2.60;1.10;;;;;;;13.33;78.71;100884.31;5032868;28;20489;-51
2023/05/04 04:28:52;;;;;;;2.40;1.05;;;;;;;13.02;79.80;100882.53;5032621;28;20041;-54
2023/05/04 04:31:18;;;;;;;4.05;1.15;;;;;;;13.21;78.46;100889.59;5032841;28;20104;-51
2023/05/04 04:33:46;;;;;;;2.58;1.17;;;;;;;12.80;79.82;100896.34;5033166;28;20382;-51
2023/05/04 04:36:15;;;;;;;1.85;1.00;;;;;;;12.76;80.43;100894.31;5032852;28;20099;-52
2023/05/04 04:38:42;;;;;;;2.50;1.20;;;;;;;13.03;80.53;100886.84;5032981;28;20021;-52
2023/05/04 04:41:08;;;;;;;2.67;1.40;;;;;;;12.94;80.96;100895.19;5029077;28;20549;-52
2023/05/04 04:43:35;;;;;;;3.28;1.45;;;;;;;12.75;83.02;100893.47;5013385;28;20034;-52
2023/05/04 04:46:02;;;;;;;3.33;1.70;;;;;;;12.56;83.20;100895.28;5014955;28;20033;-49
2023/05/04 04:48:30;;;;;;;3.55;1.23;;;;;;;12.55;82.94;100900.88;5032902;28;20382;-49
2023/05/04 04:50:57;;;;;;;2.33;1.33;;;;;;;12.49;83.79;100901.72;5031724;28;20028;-51
2023/05/04 04:53:23;;;;;;;2.72;1.20;;;;;;;12.77;81.51;100904.00;5032205;28;20105;-52
2023/05/04 04:55:49;;;;;;;2.58;0.98;;;;;;;12.60;81.52;100909.94;5032921;28;20064;-51
2023/05/04 04:58:16;;;;;;;3.33;0.80;;;;;;;12.23;82.47;100916.97;5032755;28;20599;-50
2023/05/04 05:00:44;;;;;;;1.98;0.68;;;;;;;12.28;81.99;100902.91;5032830;28;20033;-50
2023/05/04 05:03:10;;;;;;;1.38;0.98;;;;;;;12.29;82.52;100897.31;5014171;28;20034;-51
2023/05/04 05:05:36;;;;;;;3.80;0.90;;;;;;;12.01;82.48;100902.22;5013014;28;20026;-51
2023/05/04 05:08:03;;;;;;;3.38;1.05;;;;;;;11.94;83.08;100893.38;5028859;28;20033;-52
2023/05/04 05:10:29;;;;;;;3.28;1.17;;;;;;;11.68;83.03;100888.94;5032562;28;20079;-52
2023/05/04 05:12:55;;;;;;;2.53;0.80;;;;;;;11.58;83.56;100898.22;5017322;28;20038;-49
2023/05/04 05:15:22;;;;;;;2.22;0.90;;;;;;;11.33;84.01;100897.28;5013685;28;20030;-52
2023/05/04 05:17:48;;;;;;;2.38;0.90;;;;;;;11.48;83.26;100889.81;5012561;28;20026;-51
2023/05/04 05:20:14;;;;;;;2.55;0.98;;;;;;;11.26;84.47;100889.22;5012767;28;20017;-52
2023/05/04 05:22:41;;;;;;;1.30;0.80;;;;;;;11.35;84.84;100897.88;5029432;28;20048;-51
2023/05/04 05:25:08;;;;;;;2.05;0.70;;;;;;;11.35;84.92;100887.16;5032209;28;20044;-53
2023/05/04 05:27:35;;;;;;;1.80;0.90;;;;;;;11.32;84.05;100888.41;5031182;28;20104;-52
2023/05/04 05:30:04;;;;;;;1.02;0.85;;;;;;;11.19;84.57;100899.16;5031887;28;20385;-52
2023/05/04 05:32:30;;;;;;;3.28;0.80;;;;;;;11.07;84.98;100893.59;5031110;28;20394;-52
2023/05/04 05:34:56;;;;;;;1.77;1.08;;;;;;;11.15;84.20;100889.06;5032139;28;20022;-52
2023/05/04 05:37:23;;;;;;;1.63;0.90;;;;;;;11.20;83.38;100895.44;5029314;28;20026;-52
2023/05/04 05:39:49;;;;;;;1.00;0.73;;;;;;;11.13;83.96;100889.28;5031588;28;20500;-52
2023/05/04 05:42:15;;;;;;;2.92;0.80;;;;;;;11.00;84.08;100890.13;5014318;28;20038;-52
2023/05/04 05:44:42;;;;;;;4.30;1.23;;;;;;;11.07;83.74;100890.09;4994758;28;20033;-51
2023/05/04 05:47:08;;;;;;;2.85;0.82;;;;;;;11.06;83.78;100891.16;5027626;28;20150;-51
2023/05/04 05:49:34;;;;;;;1.45;0.70;;;;;;;11.02;84.41;100890.72;5031615;28;20018;-50
2023/05/04 05:52:00;;;;;;;3.25;0.90;;;;;;;11.08;84.23;100886.38;5028474;28;20052;-52
2023/05/04 05:54:30;;;;;;;2.17;0.73;;;;;;;11.03;83.16;100883.50;5031856;28;20478;-52
2023/05/04 05:56:56;;;;;;;3.78;1.13;;;;;;;10.90;83.91;100884.34;5031519;28;20446;-52
2023/05/04 05:59:22;;;;;;;2.72;0.90;;;;;;;10.88;83.99;100877.53;5013604;28;20499;-51
2023/05/04 06:01:49;;;;;;;2.80;0.90;;;;;;;11.02;84.01;100885.38;5029483;28;20044;-52
2023/05/04 06:04:15;;;;;;;2.40;0.73;;;;;;;11.06;83.86;100877.75;5031661;28;20049;-52
2023/05/04 06:06:41;;;;;;;1.83;0.80;;;;;;;11.07;83.46;100879.38;5022080;28;20234;-49
2023/05/04 06:09:07;;;;;;;3.13;0.88;;;;;;;11.01;84.60;100873.00;5027770;28;20033;-52
2023/05/04 06:11:33;;;;;;;1.73;0.65;;;;;;;10.98;83.99;100873.41;5024968;28;20029;-51
2023/05/04 06:14:00;;;;;;;5.05;1.00;;;;;;;11.06;83.62;100877.75;5031746;28;20114;-49
2023/05/04 06:16:26;;;;;;;2.80;1.02;;;;;;;11.17;82.95;100862.91;5024533;28;20038;-52
2023/05/04 06:18:52;;;;;;;0.90;0.63;;;;;;;11.10;82.89;100876.28;5011534;28;20033;-52
2023/05/04 06:21:19;;;;;;;1.52;1.02;;;;;;;11.07;83.15;100874.03;5011951;28;20089;-52
2023/05/04 06:23:46;;;;;;;1.38;0.80;;;;;;;11.00;83.36;100867.88;5012142;28;20041;-49
2023/05/04 06:26:12;;;;;;;1.67;1.15;;;;;;;11.01;83.40;100869.50;5031691;28;20017;-53
2023/05/04 06:28:39;;;;;;;2.03;0.95;;;;;;;10.96;83.34;100867.44;5013909;28;20049;-52
2023/05/04 06:31:05;;;;;;;0.98;0.80;;;;;;;11.00;83.18;100873.22;5026871;28;20027;-50
2023/05/04 06:33:31;;;;;;;1.40;0.55;;;;;;;11.04;82.78;100869.06;5025022;28;20520;-51
2023/05/04 06:35:58;;;;;;;1.30;0.75;;;;;;;11.06;81.85;100869.72;5011859;28;20549;-52
2023/05/04 06:38:24;;;;;;;1.40;0.90;;;;;;;11.20;81.42;100867.81;5015457;28;20025;-52
2023/05/04 06:40:50;;;;;;;0.85;0.60;;;;;;;11.06;81.71;100875.88;5031675;28;20026;-49
2023/05/04 06:43:16;;;;;;;1.30;0.65;;;;;;;11.06;82.12;100872.38;5033300;28;20490;-52
2023/05/04 06:45:43;;;;;;;2.00;0.70;;;;;;;10.97;82.84;100877.13;5035130;28;20030;-52
2023/05/04 06:48:10;;;;;;;2.45;0.90;;;;;;;11.01;81.72;100874.88;5033124;28;20155;-49
2023/05/04 06:50:39;;;;;;;1.80;0.90;;;;;;;11.07;81.92;100877.53;5015319;28;20059;-53
2023/05/04 06:53:10;;;;;;;1.70;0.90;;;;;;;11.04;81.81;100877.94;5014996;28;20026;-52
2023/05/04 06:55:36;;;;;;;1.88;0.80;;;;;;;11.01;81.78;100875.69;5027761;28;20029;-53
2023/05/04 06:58:03;;;;;;;1.08;0.88;;;;;;;11.04;81.09;100874.44;5034307;28;20021;-55
2023/05/04 07:00:30;;;;;;;1.52;0.70;;;;;;;10.93;81.38;100870.53;5015039;28;20041;-53
2023/05/04 07:02:57;;;;;;;1.05;0.80;;;;;;;11.17;81.01;100860.22;5015304;28;20072;-52
2023/05/04 07:05:24;;;;;;;1.67;0.77;;;;;;;10.93;81.56;100861.69;5032400;28;20034;-52
2023/05/04 07:07:51;;;;;;;1.63;0.80;;;;;;;10.87;81.69;100859.84;5018516;28;20039;-52
2023/05/04 07:10:18;;;;;;;2.08;0.70;;;;;;;10.84;81.75;100864.59;5014716;28;20046;-52
2023/05/04 07:12:44;;;;;;;0.80;0.80;;;;;;;10.80;81.71;100863.34;5026267;28;20096;-51
2023/05/04 07:15:11;;;;;;;2.97;0.80;;;;;;;10.78;81.67;100865.41;5034466;28;20025;-52
2023/05/04 07:17:38;;;;;;;1.77;0.80;;;;;;;10.75;82.17;100865.81;5030210;28;20111;-50
2023/05/04 07:20:05;;;;;;;1.77;0.70;;;;;;;10.72;82.65;100868.91;5034136;28;20021;-52
2023/05/04 07:22:32;;;;;;;1.10;1.00;;;;;;;10.47;85.17;100867.88;5022921;28;20084;-52
2023/05/04 07:24:59;;;;;;;2.00;1.05;;;;;;;10.39;85.88;100862.72;5032497;28;20025;-53
2023/05/04 07:27:25;;;;;;;2.75;1.08;;;;;;;10.48;85.02;100864.16;5033837;28;20039;-52
2023/05/04 07:29:51;;;;;;;2.40;1.40;;;;;;;10.46;85.60;100864.38;5033867;28;20115;-52
2023/05/04 07:32:18;;;;;;;1.63;0.90;;;;;;;10.65;84.53;100861.91;5033624;28;20501;-52
2023/05/04 07:34:45;;;;;;;2.22;0.98;;;;;;;10.52;84.05;100862.72;5034139;28;20497;-52
2023/05/04 07:37:12;;;;;;;1.50;0.90;;;;;;;10.46;83.85;100867.03;5033838;28;20041;-51
2023/05/04 07:39:38;;;;;;;2.08;0.70;;;;;;;10.43;83.74;100862.09;5033564;28;20084;-52
2023/05/04 07:42:06;;;;;;;2.28;1.08;;;;;;;10.64;83.18;100863.75;5033930;28;20092;-52
2023/05/04 07:44:32;;;;;;;1.83;1.05;;;;;;;10.36;84.27;100863.94;5033532;28;20444;-53
2023/05/04 07:47:00;;;;;;;1.23;0.85;;;;;;;10.37;84.39;100860.22;5034233;28;20470;-52
2023/05/04 07:49:26;;;;;;;1.83;1.00;;;;;;;10.32;84.15;100870.72;5033418;28;20034;-53
2023/05/04 07:51:53;;;;;;;1.92;1.20;;;;;;;10.30;84.31;100868.25;5033907;28;20128;-52
2023/05/04 07:54:19;;;;;;;1.05;0.90;;;;;;;10.31;83.95;100861.03;5031750;28;20374;-53
2023/05/04 07:56:45;;;;;;;2.67;0.90;;;;;;;10.28;83.73;100864.97;5033848;28;20025;-52
2023/05/04 07:59:11;;;;;;;2.22;1.00;;;;;;;10.63;81.81;100856.75;5033120;28;20025;-52
2023/05/04 08:01:38;;;;;;;1.80;0.85;;;;;;;10.39;81.83;100850.16;5033501;28;20059;-52
2023/05/04 08:04:04;;;;;;;3.10;1.15;;;;;;;10.25;82.33;100854.66;5033340;28;20112;-52
2023/05/04 08:06:32;;;;;;;1.13;0.80;;;;;;;10.28;81.93;100856.94;5033738;28;20040;-52
2023/05/04 08:08:58;;;;;;;1.58;0.95;;;;;;;10.32;81.58;100862.69;5032755;28;20048;-53
2023/05/04 08:11:25;;;;;;;2.60;1.05;;;;;;;10.22;81.33;100859.59;5033627;28;20049;-52
2023/05/04 08:13:51;;;;;;;0.73;0.57;;;;;;;10.14;81.74;100865.09;5033622;28;20025;-52
2023/05/04 08:16:18;;;;;;;2.17;0.95;;;;;;;10.04;81.86;100862.81;5033055;28;20386;-52
2023/05/04 08:18:44;;;;;;;3.47;0.90;;;;;;;10.03;81.75;100856.63;5033150;28;20482;-52
2023/05/04 08:21:10;;;;;;;1.42;0.75;;;;;;;9.97;81.68;100852.09;5032881;28;20091;-53
2023/05/04 08:23:37;;;;;;;2.92;0.80;;;;;;;9.93;81.64;100866.88;5033319;28;20033;-53
2023/05/04 08:26:04;;;;;;;1.70;0.68;;;;;;;9.93;81.74;100855.38;5032835;28;20061;-52
2023/05/04 08:28:36;;;;;;;1.70;0.73;;;;;;;9.89;81.70;100851.47;5032997;28;20018;-52
2023/05/04 08:31:02;;;;;;;2.00;0.90;;;;;;;9.91;81.89;100852.09;5032702;28;20116;-51
2023/05/04 08:33:29;;;;;;;1.88;1.35;;;;;;;9.93;81.92;100856.19;5032651;28;20129;-52
2023/05/04 08:35:55;;;;;;;2.78;1.10;;;;;;;9.92;81.87;100856.41;5033356;28;20040;-53
2023/05/04 08:38:21;;;;;;;5.75;2.60;;;;;;;10.02;82.20;100848.81;5032216;28;20049;-52
2023/05/04 08:40:48;;;;;;;5.03;3.13;;;;;;;9.87;83.27;100856.19;5033253;28;20116;-53
2023/05/04 08:43:15;;;;;;;4.43;3.10;;;;;;;9.99;82.95;100858.09;5032886;28;20033;-53
2023/05/04 08:45:42;;;;;;;7.28;4.18;;;;;;;10.05;83.03;100861.81;5032766;28;20448;-52
2023/05/04 08:48:09;;;;;;;4.65;3.55;;;;;;;10.06;83.30;100852.75;5032208;28;20029;-51
2023/05/04 08:50:37;;;;;;;4.13;3.30;;;;;;;10.05;83.85;100853.78;5032921;28;20021;-50
2023/05/04 08:53:06;;;;;;;5.93;3.60;;;;;;;10.11;84.37;100850.31;5032408;28;20021;-51
2023/05/04 08:55:36;;;;;;;4.47;3.35;;;;;;;10.18;83.85;100844.97;5032807;28;20489;-50
2023/05/04 08:58:11;;;;;;;4.47;2.50;;;;;;;10.15;84.43;100835.47;5032216;28;20466;-50
2023/05/04 09:00:38;;;;;;;3.75;2.00;;;;;;;10.42;83.82;100835.53;5032727;28;20037;-50
2023/05/04 09:03:06;;;;;;;4.20;2.20;;;;;;;10.37;83.54;100830.81;5032713;28;20061;-52
2023/05/04 09:05:33;;;;;;;2.35;1.55;;;;;;;10.25;84.63;100849.31;5032673;28;20538;-50
2023/05/04 09:07:59;;;;;;;4.82;2.28;;;;;;;10.41;83.94;100842.75;5032112;28;20501;-52
2023/05/04 09:10:26;;;;;;;1.85;1.45;;;;;;;10.30;84.65;100838.81;5032374;28;20367;-49
2023/05/04 09:12:55;;;;;;;2.42;1.52;;;;;;;10.28;85.32;100834.72;5031771;28;20433;-50
2023/05/04 09:15:22;;;;;;;4.72;1.60;;;;;;;10.49;84.77;100839.88;5032162;28;20030;-52
2023/05/04 09:18:01;;;;;;;1.98;1.23;;;;;;;10.57;84.73;100828.97;5032303;28;20053;-53
2023/05/04 09:20:28;;;;;;;2.35;1.08;;;;;;;10.48;84.94;100835.53;5032240;28;20072;-53
2023/05/04 09:23:08;;;;;;;1.55;1.30;;;;;;;10.51;85.08;100828.97;5031959;28;20033;-52
2023/05/04 09:25:46;;;;;;;2.70;1.63;;;;;;;10.52;85.08;100827.94;5012718;28;20127;-53
2023/05/04 09:28:12;;;;;;;4.05;1.65;;;;;;;10.51;85.33;100832.47;5025469;28;20040;-53
2023/05/04 09:30:39;;;;;;;2.92;1.52;;;;;;;10.52;85.33;100827.94;5032456;28;20167;-50
2023/05/04 09:33:05;;;;;;;2.28;1.55;;;;;;;10.39;86.53;100836.78;5031440;28;20037;-53
2023/05/04 09:35:31;;;;;;;2.53;1.60;;;;;;;10.56;85.47;100830.00;5032136;28;20021;-52
2023/05/04 09:37:58;;;;;;;1.83;1.30;;;;;;;10.58;84.97;100838.63;5031445;28;20489;-52
2023/05/04 09:40:41;;;;;;;1.95;1.45;;;;;;;10.59;85.41;100826.06;5031968;28;20029;-51
2023/05/04 09:43:09;;;;;;;2.00;0.95;;;;;;;10.61;85.24;100825.88;5031786;28;20029;-52
2023/05/04 09:45:46;;;;;;;1.42;1.20;;;;;;;10.58;85.37;100824.44;5032027;28;20021;-52
2023/05/04 09:48:27;;;;;;;2.58;1.27;;;;;;;10.70;85.04;100825.44;5031392;28;20037;-51
2023/05/04 09:50:54;;;;;;;5.70;1.10;;;;;;;10.63;85.51;100824.63;5031899;28;20032;-53
2023/05/04 09:53:23;;;;;;;2.85;1.02;;;;;;;10.62;85.73;100820.31;5031673;28;20056;-49
2023/05/04 09:55:58;;;;;;;1.83;0.90;;;;;;;10.58;85.86;100817.22;5031681;28;20022;-53
2023/05/04 09:58:25;;;;;;;0.73;0.68;;;;;;;10.62;85.97;100814.97;5030997;28;20022;-52
2023/05/04 10:00:55;;;;;;;1.60;0.90;;;;;;;10.73;85.23;100808.97;5031651;28;20029;-52
2023/05/04 10:03:22;;;;;;;1.95;0.75;;;;;;;10.60;85.58;100808.97;5031471;28;20116;-52
2023/05/04 10:05:49;;;;;;;1.67;0.70;;;;;;;10.61;85.71;100809.81;5031693;28;20017;-53
2023/05/04 10:08:17;;;;;;;2.08;0.90;;;;;;;10.53;86.37;100810.84;5031221;28;20453;-52
2023/05/04 10:10:44;;;;;;;4.00;0.80;;;;;;;10.70;85.97;100805.88;5031672;28;20025;-52
2023/05/04 10:13:11;;;;;;;3.03;0.80;;;;;;;10.78;85.04;100806.50;5030999;28;20040;-51
2023/05/04 10:16:07;;;;;;;1.27;0.80;;;;;;;10.71;85.30;100805.66;5031857;28;20040;-52
2023/05/04 10:18:45;;;;;;;1.23;0.68;;;;;;;10.66;85.53;100800.16;5035036;28;20474;-51
2023/05/04 10:21:32;;;;;;;1.73;0.80;;;;;;;10.71;85.42;100800.31;5035699;28;20037;-51
2023/05/04 10:24:21;;;;;;;1.20;0.70;;;;;;;10.86;84.60;100794.75;5035666;28;20030;-52
2023/05/04 10:27:09;;;;;;;5.80;1.10;;;;;;;10.77;84.80;100794.16;5035134;28;20462;-52
2023/05/04 10:29:36;;;;;;;1.80;0.90;;;;;;;10.77;84.35;100794.16;5035308;28;20032;-53
2023/05/04 10:32:03;;;;;;;1.65;0.80;;;;;;;10.65;84.89;100805.69;5035069;28;20030;-50
2023/05/04 10:34:31;;;;;;;0.93;0.63;;;;;;;10.68;84.72;100808.78;5035466;28;20108;-52
2023/05/04 10:36:59;;;;;;;4.28;0.90;;;;;;;10.41;86.59;100807.97;5034977;28;20033;-49
2023/05/04 10:39:30;;;;;;;2.58;1.17;;;;;;;10.03;88.82;100813.84;5035191;28;20060;-51
2023/05/04 10:41:58;;;;;;;2.35;0.90;;;;;;;10.34;87.67;100804.47;5034702;28;20036;-49
2023/05/04 10:44:25;;;;;;;1.27;0.80;;;;;;;10.26;87.90;100802.81;5017462;28;20420;-52
2023/05/04 10:47:01;;;;;;;3.63;0.73;;;;;;;10.26;88.12;100794.78;5034806;28;20548;-52
2023/05/04 10:49:28;;;;;;;1.98;0.65;;;;;;;10.34;87.37;100798.28;5034524;28;20059;-52
2023/05/04 10:52:23;;;;;;;2.97;0.98;;;;;;;10.35;86.88;100800.75;5034926;28;20037;-52
2023/05/04 10:55:00;;;;;;;2.20;1.13;;;;;;;10.58;85.94;100795.00;5021922;28;20406;-51
2023/05/04 10:57:30;;;;;;;1.88;0.90;;;;;;;10.70;84.25;100792.50;5034652;28;20265;-50
2023/05/04 10:59:58;;;;;;;1.10;0.90;;;;;;;10.43;85.10;100794.38;5034599;28;20021;-53
2023/05/04 11:02:26;;;;;;;2.40;0.95;;;;;;;10.29;85.18;100797.06;5034838;28;20555;-52
2023/05/04 11:05:08;;;;;;;2.03;1.10;;;;;;;10.28;85.49;100800.75;5034469;28;22010;-51
2023/05/04 11:07:38;;;;;;;1.95;0.90;;;;;;;10.50;84.04;100798.72;5034499;28;20053;-50
2023/05/04 11:10:07;;;;;;;1.17;0.90;;;;;;;10.37;83.70;100800.53;5034511;28;20036;-53
2023/05/04 11:12:34;;;;;;;0.82;0.77;;;;;;;10.24;84.36;100806.72;5034594;28;20102;-49
2023/05/04 11:15:09;;;;;;;0.90;0.77;;;;;;;10.14;84.61;100807.09;5034177;28;20025;-53
2023/05/04 11:17:49;;;;;;;2.37;1.00;;;;;;;10.05;84.88;100811.81;5034293;28;20057;-52
2023/05/04 11:20:22;;;;;;;3.92;1.10;;;;;;;9.93;84.83;100807.25;5034082;28;20032;-51
2023/05/04 11:22:49;;;;;;;1.80;0.90;;;;;;;9.93;84.76;100813.41;5034217;28;20152;-52
2023/05/04 11:25:16;;;;;;;1.15;1.00;;;;;;;9.89;84.89;100806.03;5034082;28;20036;-53
2023/05/04 11:27:43;;;;;;;1.45;1.15;;;;;;;9.87;84.50;100806.22;5033904;28;20029;-50
2023/05/04 11:30:10;;;;;;;2.10;1.02;;;;;;;9.89;84.48;100806.03;5033851;28;20033;-54
2023/05/04 11:32:45;;;;;;;1.35;1.00;;;;;;;9.92;84.30;100806.44;5034312;28;20099;-53